Time;durP1;ratioP1;P1;durP2;ratioP2;P2;SDS_P1;SDS_P2;PMS_P1;PMS_P2;Temp;Humidity;BMP_temperature;BMP_pressure;BME280_temperature;BME280_humidity;BME280_pressure;Samples;Min_cycle;Max_cycle;Signal;HPM_P1;HPM_P2
2021/01/30 00:02:09;;;;;;;98.25;69.15;;;10.50;96.60;;;;;;5031490;28;20048;-47
2021/01/30 00:04:36;;;;;;;66.25;47.47;;;10.60;96.40;;;;;;5014830;28;20141;-47
2021/01/30 00:07:03;;;;;;;52.47;38.38;;;10.60;96.10;;;;;;5031376;28;20039;-47
2021/01/30 00:09:29;;;;;;;48.13;35.10;;;10.50;96.00;;;;;;5031517;28;20112;-47
2021/01/30 00:11:59;;;;;;;45.97;34.50;;;10.50;96.00;;;;;;5026556;28;20456;-47
2021/01/30 00:14:34;;;;;;;44.47;32.90;;;10.40;96.00;;;;;;5011553;28;20113;-47
2021/01/30 00:17:01;;;;;;;38.55;28.48;;;10.50;95.90;;;;;;5011674;28;20030;-47
2021/01/30 00:19:29;;;;;;;39.95;28.88;;;10.50;95.80;;;;;;5030996;28;20037;-47
2021/01/30 00:22:01;;;;;;;31.80;24.40;;;10.60;95.60;;;;;;5033459;28;20380;-47
2021/01/30 00:24:28;;;;;;;36.80;26.77;;;10.60;95.50;;;;;;5033280;28;20433;-47
2021/01/30 00:26:57;;;;;;;32.58;25.30;;;10.60;95.40;;;;;;5033355;28;20030;-47
2021/01/30 00:29:25;;;;;;;34.35;25.85;;;10.60;95.50;;;;;;5033199;28;20079;-47
2021/01/30 00:31:51;;;;;;;34.53;26.27;;;10.60;95.50;;;;;;5033326;28;20100;-47
2021/01/30 00:34:19;;;;;;;30.80;22.92;;;10.60;95.30;;;;;;5033472;28;20072;-47
2021/01/30 00:36:45;;;;;;;31.77;24.27;;;10.60;95.30;;;;;;5036775;28;20108;-47
2021/01/30 00:39:11;;;;;;;31.08;24.77;;;10.60;95.30;;;;;;4976173;28;20468;-47
2021/01/30 00:41:36;;;;;;;51.75;35.55;;;10.60;95.30;;;;;;4976165;28;20043;-47
2021/01/30 00:44:03;;;;;;;30.55;23.85;;;10.60;95.40;;;;;;4944428;28;20042;-47
2021/01/30 00:46:29;;;;;;;30.58;25.60;;;10.50;95.50;;;;;;4975990;28;20462;-47
2021/01/30 00:48:56;;;;;;;30.20;23.80;;;10.40;95.50;;;;;;4976169;28;20383;-47
2021/01/30 00:51:22;;;;;;;27.85;20.85;;;10.40;95.70;;;;;;4976093;28;20523;-47
2021/01/30 00:53:48;;;;;;;31.73;24.38;;;10.40;95.70;;;;;;4976137;28;20039;-47
2021/01/30 00:56:14;;;;;;;32.00;25.08;;;10.40;95.70;;;;;;4976195;28;20033;-47
2021/01/30 00:58:42;;;;;;;25.90;21.25;;;10.40;95.70;;;;;;4975876;28;20506;-47
2021/01/30 01:01:09;;;;;;;29.80;21.67;;;10.40;95.70;;;;;;4976026;28;20042;-47
2021/01/30 01:03:35;;;;;;;25.33;20.15;;;10.40;95.70;;;;;;4975619;28;20038;-47
2021/01/30 01:06:01;;;;;;;23.48;19.13;;;10.50;95.70;;;;;;4943749;28;20375;-47
2021/01/30 01:08:27;;;;;;;23.15;17.52;;;10.40;95.80;;;;;;4975979;28;20030;-47
2021/01/30 01:10:53;;;;;;;18.27;15.25;;;10.50;95.70;;;;;;5024504;28;20550;-47
2021/01/30 01:13:19;;;;;;;23.33;17.42;;;10.50;95.70;;;;;;5036090;28;20053;-47
2021/01/30 01:15:46;;;;;;;22.88;16.90;;;10.40;95.80;;;;;;5036459;28;20544;-47
2021/01/30 01:18:12;;;;;;;25.40;19.02;;;10.30;96.00;;;;;;5036762;28;20112;-47
2021/01/30 01:20:38;;;;;;;28.38;19.02;;;10.30;96.10;;;;;;5036497;28;20043;-47
2021/01/30 01:23:04;;;;;;;24.55;19.77;;;10.30;96.60;;;;;;5018222;28;20552;-47
2021/01/30 01:25:30;;;;;;;24.73;18.85;;;10.10;96.50;;;;;;4985750;28;20061;-47
2021/01/30 01:27:56;;;;;;;24.48;18.90;;;10.10;96.50;;;;;;4985674;28;20051;-47
2021/01/30 01:30:23;;;;;;;22.23;18.30;;;10.00;96.70;;;;;;5036206;28;20034;-47
2021/01/30 01:32:51;;;;;;;17.63;14.82;;;9.80;97.00;;;;;;5001794;28;20121;-48
2021/01/30 01:35:23;;;;;;;14.20;11.95;;;9.80;97.00;;;;;;5036380;28;20037;-47
2021/01/30 01:37:51;;;;;;;17.77;12.63;;;9.70;97.10;;;;;;4974890;28;20094;-47
2021/01/30 01:40:20;;;;;;;14.38;10.52;;;9.70;97.20;;;;;;4975163;28;20518;-47
2021/01/30 01:42:46;;;;;;;14.63;9.45;;;;;;;;;;4975019;28;20096;-47
2021/01/30 01:45:12;;;;;;;12.48;8.55;;;9.50;99.90;;;;;;4942934;28;20078;-47
2021/01/30 01:47:43;;;;;;;12.70;8.35;;;9.50;97.60;;;;;;4941910;28;20041;-47
2021/01/30 01:50:32;;;;;;;11.18;8.93;;;9.50;99.90;;;;;;4975121;28;20534;-47
2021/01/30 01:53:05;;;;;;;10.82;8.00;;;9.40;97.70;;;;;;4959043;28;20043;-47
2021/01/30 01:55:31;;;;;;;8.30;6.20;;;9.40;97.60;;;;;;4975036;28;20027;-48
2021/01/30 01:58:01;;;;;;;8.00;6.60;;;9.40;97.60;;;;;;4974901;28;20199;-48
2021/01/30 02:00:27;;;;;;;7.43;5.63;;;9.30;97.70;;;;;;4974896;28;20069;-48
2021/01/30 02:02:54;;;;;;;8.90;6.22;;;9.30;97.80;;;;;;4975092;28;20047;-48
2021/01/30 02:05:28;;;;;;;6.97;4.78;;;9.30;98.00;;;;;;4955961;29;20439;-48
2021/01/30 02:07:58;;;;;;;7.30;4.88;;;9.30;97.80;;;;;;4963215;28;20047;-48
2021/01/30 02:10:26;;;;;;;6.20;4.20;;;9.40;97.70;;;;;;5011153;28;20572;-49
2021/01/30 02:12:58;;;;;;;6.45;4.30;;;9.40;97.80;;;;;;5025801;28;20044;-48
2021/01/30 02:15:24;;;;;;;5.82;5.10;;;9.40;97.60;;;;;;5030649;28;20037;-48
2021/01/30 02:17:56;;;;;;;5.78;4.70;;;9.40;97.60;;;;;;5033700;28;20041;-48
2021/01/30 02:20:56;;;;;;;7.13;4.30;;;9.40;97.60;;;;;;5033879;28;20395;-48
2021/01/30 02:23:46;;;;;;;6.65;4.65;;;9.40;97.70;;;;;;5033033;28;20037;-48
2021/01/30 02:26:14;;;;;;;7.05;4.45;;;9.30;97.70;;;;;;5033060;28;20044;-48
2021/01/30 02:28:53;;;;;;;6.15;4.80;;;9.30;97.70;;;;;;5032958;28;20021;-48
2021/01/30 02:31:37;;;;;;;5.20;3.88;;;9.30;97.80;;;;;;5033159;28;20468;-48
2021/01/30 02:34:24;;;;;;;6.75;4.28;;;9.30;97.80;;;;;;5032071;28;20132;-48
2021/01/30 02:36:56;;;;;;;6.45;4.38;;;9.30;97.70;;;;;;5047492;28;20041;-47
2021/01/30 02:39:27;;;;;;;7.00;4.50;;;9.30;97.70;;;;;;5053754;28;20025;-48
2021/01/30 02:41:58;;;;;;;5.75;4.50;;;9.30;97.60;;;;;;5053623;28;20103;-47
2021/01/30 02:44:26;;;;;;;6.07;4.78;;;9.40;97.60;;;;;;5034937;28;20044;-48
2021/01/30 02:46:55;;;;;;;5.68;4.40;;;9.40;97.60;;;;;;5053374;28;20021;-48
2021/01/30 02:49:32;;;;;;;8.45;5.18;;;9.30;97.70;;;;;;5053630;28;20476;-48
2021/01/30 02:52:22;;;;;;;7.45;5.20;;;9.40;97.70;;;;;;5053465;28;20029;-48
2021/01/30 02:54:50;;;;;;;6.82;4.97;;;9.30;97.70;;;;;;5017587;28;20488;-47
2021/01/30 02:57:17;;;;;;;5.88;4.68;;;9.20;98.00;;;;;;5018371;28;20041;-47
2021/01/30 02:59:49;;;;;;;6.55;5.28;;;9.30;97.90;;;;;;5053160;28;20107;-48
2021/01/30 03:02:18;;;;;;;6.97;5.18;;;9.30;97.80;;;;;;5053385;28;20032;-48
2021/01/30 03:04:44;;;;;;;7.82;5.28;;;9.40;97.70;;;;;;5034609;28;20082;-48
2021/01/30 03:07:54;;;;;;;6.55;4.90;;;9.30;97.70;;;;;;5053271;28;20028;-48
2021/01/30 03:10:36;;;;;;;8.18;5.32;;;9.30;97.80;;;;;;5011047;28;20033;-48
2021/01/30 03:13:11;;;;;;;7.72;5.38;;;9.20;97.90;;;;;;5010738;28;20050;-48
2021/01/30 03:15:50;;;;;;;8.15;6.05;;;9.30;97.70;;;;;;5011093;28;20034;-48
2021/01/30 03:18:20;;;;;;;10.52;8.07;;;9.40;97.70;;;;;;5011209;28;20112;-47
2021/01/30 03:20:46;;;;;;;7.90;7.10;;;9.40;97.60;;;;;;5011053;28;20712;-49
2021/01/30 03:23:15;;;;;;;7.78;6.22;;;9.40;97.40;;;;;;5010972;28;20042;-48
2021/01/30 03:25:42;;;;;;;9.45;6.07;;;9.40;97.40;;;;;;5010776;28;20032;-49
2021/01/30 03:28:11;;;;;;;8.77;6.15;;;9.50;97.30;;;;;;5010833;28;20077;-48
2021/01/30 03:30:37;;;;;;;9.65;6.15;;;9.40;97.60;;;;;;5010994;28;20022;-48
2021/01/30 03:33:05;;;;;;;8.77;5.95;;;9.40;97.50;;;;;;5010758;28;20024;-48
2021/01/30 03:35:31;;;;;;;8.43;6.00;;;9.40;97.50;;;;;;5010846;28;20025;-48
2021/01/30 03:37:57;;;;;;;8.23;6.13;;;9.40;97.50;;;;;;5010771;28;20030;-48
2021/01/30 03:40:23;;;;;;;8.43;6.30;;;9.40;97.80;;;;;;4977804;28;20608;-48
2021/01/30 03:42:50;;;;;;;8.52;6.78;;;9.40;97.60;;;;;;5010700;28;20037;-48
2021/01/30 03:45:19;;;;;;;8.60;6.10;;;9.40;97.60;;;;;;5010677;28;20026;-48
2021/01/30 03:47:45;;;;;;;8.68;5.90;;;9.50;97.50;;;;;;5042483;28;20075;-48
2021/01/30 03:50:12;;;;;;;7.75;5.95;;;9.50;97.30;;;;;;5052463;28;20057;-48
2021/01/30 03:52:38;;;;;;;8.32;5.97;;;;;;;;;;5052344;28;20075;-48
2021/01/30 03:55:05;;;;;;;8.63;5.90;;;9.80;99.90;;;;;;5052374;28;20392;-48
2021/01/30 03:57:31;;;;;;;8.02;6.05;;;9.80;96.60;;;;;;5017177;28;20044;-47
2021/01/30 03:59:57;;;;;;;7.38;5.97;;;9.80;96.50;;;;;;5052279;28;20025;-47
2021/01/30 04:02:22;;;;;;;9.00;6.47;;;9.70;96.50;;;;;;5052342;28;20557;-47
2021/01/30 04:04:48;;;;;;;8.60;6.68;;;9.70;96.70;;;;;;5052313;28;20028;-48
2021/01/30 04:07:15;;;;;;;7.63;6.20;;;9.40;97.40;;;;;;5052211;28;20396;-47
2021/01/30 04:09:41;;;;;;;9.43;7.10;;;9.50;97.30;;;;;;5051882;28;20017;-47
2021/01/30 04:12:07;;;;;;;11.07;6.72;;;9.60;97.10;;;;;;5045881;28;20049;-49
2021/01/30 04:14:34;;;;;;;11.07;8.25;;;9.40;97.40;;;;;;5032419;28;20030;-47
2021/01/30 04:17:01;;;;;;;9.63;7.90;;;9.40;97.30;;;;;;5013636;28;20037;-48
2021/01/30 04:19:27;;;;;;;11.10;7.45;;;9.40;97.30;;;;;;5032118;28;20034;-48
2021/01/30 04:21:52;;;;;;;9.63;7.57;;;9.50;97.20;;;;;;5032269;28;20087;-48
2021/01/30 04:24:18;;;;;;;9.98;6.95;;;9.40;97.20;;;;;;5032086;28;20042;-47
2021/01/30 04:26:48;;;;;;;9.70;6.70;;;9.40;97.50;;;;;;5014118;28;20064;-47
2021/01/30 04:29:15;;;;;;;9.80;7.93;;;9.40;97.40;;;;;;4994537;28;20080;-47
2021/01/30 04:31:41;;;;;;;10.02;7.20;;;9.60;97.00;;;;;;5031959;28;20071;-47
2021/01/30 04:34:07;;;;;;;11.77;7.25;;;9.70;96.70;;;;;;5032001;28;20029;-49
2021/01/30 04:36:36;;;;;;;9.98;7.35;;;9.80;96.50;;;;;;5032172;28;20108;-48
2021/01/30 04:39:05;;;;;;;10.73;7.28;;;9.90;96.20;;;;;;4996983;28;20037;-49
2021/01/30 04:41:48;;;;;;;10.73;7.07;;;9.90;96.10;;;;;;4997041;28;20067;-48
2021/01/30 04:44:45;;;;;;;8.40;6.95;;;9.90;95.90;;;;;;5031631;28;20045;-48
2021/01/30 04:47:40;;;;;;;9.63;7.20;;;9.90;96.10;;;;;;5032014;28;20028;-48
2021/01/30 04:50:29;;;;;;;10.18;7.30;;;9.90;96.20;;;;;;5031930;28;20027;-49
2021/01/30 04:53:20;;;;;;;12.23;7.90;;;9.90;96.00;;;;;;5031867;28;20017;-48
2021/01/30 04:56:07;;;;;;;8.87;7.30;;;10.00;95.70;;;;;;4970803;28;20039;-47
2021/01/30 04:58:51;;;;;;;10.82;8.15;;;10.10;95.50;;;;;;4970715;28;20031;-48
2021/01/30 05:01:41;;;;;;;21.05;14.82;;;10.00;95.40;;;;;;4970826;28;20038;-47
2021/01/30 05:04:23;;;;;;;33.10;19.73;;;9.80;96.00;;;;;;4938366;28;20376;-49
2021/01/30 05:06:52;;;;;;;54.67;30.33;;;9.70;96.00;;;;;;4938641;28;20494;-47
2021/01/30 05:09:46;;;;;;;119.38;56.95;;;9.70;95.80;;;;;;4970811;28;20035;-47
2021/01/30 05:12:47;;;;;;;44.10;24.60;;;9.70;96.00;;;;;;4944749;28;20042;-48
2021/01/30 05:15:26;;;;;;;33.33;20.40;;;9.50;96.40;;;;;;4932231;29;20579;-48
2021/01/30 05:18:06;;;;;;;31.85;18.85;;;9.50;96.50;;;;;;4931915;29;20035;-48
2021/01/30 05:20:35;;;;;;;18.67;12.15;;;9.60;96.10;;;;;;4932766;29;20036;-49
2021/01/30 05:23:04;;;;;;;26.00;20.23;;;9.70;95.90;;;;;;4954418;28;20043;-49
2021/01/30 05:25:30;;;;;;;12.93;10.88;;;9.30;96.10;;;;;;4956196;29;20606;-49
2021/01/30 05:28:25;;;;;;;16.55;10.75;;;8.70;97.80;;;;;;4956136;28;20043;-47
2021/01/30 05:30:57;;;;;;;11.82;9.80;;;8.30;99.70;;;;;;4940162;29;20043;-48
2021/01/30 05:33:31;;;;;;;;;;;8.30;98.80;;;;;;4969958;28;20035;-48
2021/01/30 05:36:12;;;;;;;15.18;11.18;;;8.60;98.30;;;;;;4959290;28;19924;-48
2021/01/30 05:39:01;;;;;;;15.88;12.63;;;8.80;97.70;;;;;;4975563;28;20037;-48
2021/01/30 05:41:30;;;;;;;19.27;11.70;;;9.00;97.10;;;;;;4975233;28;20394;-48
2021/01/30 05:44:12;;;;;;;17.58;13.57;;;9.10;96.50;;;;;;4974937;28;20047;-47
2021/01/30 05:46:39;;;;;;;15.15;11.75;;;9.10;96.20;;;;;;4975063;28;20034;-48
2021/01/30 05:49:15;;;;;;;22.23;14.98;;;9.00;96.00;;;;;;4975062;28;20042;-48
2021/01/30 05:51:55;;;;;;;22.88;13.82;;;9.00;96.00;;;;;;4995946;28;20041;-47
2021/01/30 05:54:21;;;;;;;57.55;27.42;;;9.00;96.30;;;;;;5035131;28;20402;-47
2021/01/30 05:56:47;;;;;;;22.13;15.05;;;8.90;96.30;;;;;;5035941;28;20425;-47
2021/01/30 05:59:19;;;;;;;53.97;30.35;;;8.30;97.70;;;;;;5035725;28;20044;-48
2021/01/30 06:01:44;;;;;;;47.58;29.90;;;8.50;98.00;;;;;;5035705;28;20596;-48
2021/01/30 06:04:12;;;;;;;27.52;20.40;;;8.50;98.10;;;;;;5035371;28;20128;-48
2021/01/30 06:06:52;;;;;;;24.08;16.75;;;8.30;98.40;;;;;;5035769;28;20033;-48
2021/01/30 06:09:39;;;;;;;22.08;16.60;;;8.40;98.40;;;;;;5035414;28;20025;-48
2021/01/30 06:12:27;;;;;;;16.48;11.13;;;8.30;98.50;;;;;;5035089;28;20519;-48
2021/01/30 06:14:56;;;;;;;13.43;10.60;;;8.20;99.20;;;;;;5000878;28;20034;-48
2021/01/30 06:17:21;;;;;;;17.38;12.00;;;8.10;99.30;;;;;;5035433;28;20466;-47
2021/01/30 06:20:01;;;;;;;19.65;14.52;;;7.90;99.60;;;;;;5035401;28;20036;-48
2021/01/30 06:22:27;;;;;;;19.08;15.35;;;7.90;99.30;;;;;;5017444;28;20052;-48
2021/01/30 06:24:53;;;;;;;17.25;14.10;;;8.00;99.50;;;;;;5035280;28;20478;-47
2021/01/30 06:27:39;;;;;;;18.65;14.32;;;8.00;99.80;;;;;;5035234;28;20160;-47
2021/01/30 06:30:14;;;;;;;20.80;15.82;;;7.60;99.90;;;;;;5035353;28;20021;-48
2021/01/30 06:32:46;;;;;;;23.60;18.02;;;7.40;99.90;;;;;;4983722;28;20041;-48
2021/01/30 06:35:18;;;;;;;35.45;29.20;;;7.50;99.90;;;;;;5035077;28;20021;-47
2021/01/30 06:37:43;;;;;;;43.45;36.05;;;8.50;99.90;;;;;;5034991;28;20025;-48
2021/01/30 06:40:26;;;;;;;39.90;31.05;;;10.60;99.00;;;;;;5000429;28;20412;-48
2021/01/30 06:43:01;;;;;;;64.90;44.00;;;13.20;93.00;;;;;;5000094;28;20051;-48
2021/01/30 06:45:30;;;;;;;39.17;30.30;;;15.20;91.90;;;;;;5033691;28;20511;-48
2021/01/30 06:47:56;;;;;;;33.90;26.40;;;16.90;82.30;;;;;;4998769;28;20037;-49
2021/01/30 06:50:34;;;;;;;30.67;22.40;;;18.40;74.90;;;;;;5033734;28;20512;-49
2021/01/30 06:53:14;;;;;;;32.38;22.85;;;;;;;;;;5033679;28;20021;-49
2021/01/30 06:55:40;;;;;;;24.70;17.95;;;20.60;63.50;;;;;;4998429;28;20394;-46
2021/01/30 06:58:11;;;;;;;25.90;18.23;;;21.10;61.00;;;;;;5033545;28;20030;-46
2021/01/30 07:00:38;;;;;;;27.52;19.05;;;22.20;57.40;;;;;;5033404;28;20037;-46
2021/01/30 07:03:23;;;;;;;27.08;20.00;;;;;;;;;;5033370;28;20413;-46
2021/01/30 07:06:13;;;;;;;25.55;20.75;;;23.60;78.50;;;;;;5033490;28;20033;-46
2021/01/30 07:08:53;;;;;;;33.75;28.13;;;24.20;51.10;;;;;;5015931;28;20492;-46
2021/01/30 07:11:52;;;;;;;70.32;63.38;;;24.80;60.00;;;;;;5033228;28;20030;-46
2021/01/30 07:14:46;;;;;;;55.35;49.90;;;25.30;48.10;;;;;;5033209;28;20460;-46
2021/01/30 07:17:44;;;;;;;57.20;51.25;;;26.30;52.60;;;;;;5033229;28;20558;-46
2021/01/30 07:20:51;;;;;;;57.42;50.33;;;26.80;44.00;;;;;;5032747;28;20691;-47
2021/01/30 07:23:42;;;;;;;55.47;46.95;;;27.70;42.60;;;;;;5032753;28;20504;-46
2021/01/30 07:26:23;;;;;;;45.78;38.33;;;28.00;41.60;;;;;;5032932;28;20481;-48
2021/01/30 07:29:00;;;;;;;46.53;40.63;;;27.80;40.70;;;;;;4981808;28;20625;-48
2021/01/30 07:31:35;;;;;;;66.38;48.92;;;28.00;40.50;;;;;;5032761;28;20034;-47
2021/01/30 07:34:19;;;;;;;67.43;49.08;;;28.20;40.60;;;;;;5032730;28;20053;-48
2021/01/30 07:37:17;;;;;;;63.35;47.22;;;28.60;39.60;;;;;;5032717;28;20473;-47
2021/01/30 07:39:52;;;;;;;65.38;45.75;;;29.00;39.00;;;;;;5023865;28;20478;-47
2021/01/30 07:42:23;;;;;;;57.03;43.33;;;;;;;;;;5031908;28;20116;-48
2021/01/30 07:45:18;;;;;;;48.35;39.10;;;29.30;36.90;;;;;;5031928;28;20057;-47
2021/01/30 07:48:07;;;;;;;48.83;36.58;;;29.60;37.50;;;;;;5032376;28;20040;-47
2021/01/30 07:50:37;;;;;;;45.97;37.60;;;30.20;36.80;;;;;;4932911;29;20086;-48
2021/01/30 07:53:23;;;;;;;39.25;33.55;;;30.30;36.20;;;;;;4933063;29;20163;-47
2021/01/30 07:55:49;;;;;;;29.73;26.55;;;;;;;;;;4917043;29;20095;-47
2021/01/30 07:58:23;;;;;;;26.02;23.30;;;30.60;35.80;;;;;;4933043;29;20387;-47
2021/01/30 08:00:51;;;;;;;25.42;22.60;;;30.70;35.90;;;;;;4932608;29;20036;-47
2021/01/30 08:03:41;;;;;;;35.20;30.15;;;31.00;35.70;;;;;;4932888;29;20032;-47
2021/01/30 08:06:35;;;;;;;26.67;23.85;;;31.00;35.00;;;;;;4933004;29;20030;-48
2021/01/30 08:09:22;;;;;;;19.55;17.15;;;30.80;35.00;;;;;;4930298;29;20091;-49
2021/01/30 08:11:58;;;;;;;17.25;14.43;;;29.90;35.00;;;;;;4935843;29;20134;-49
2021/01/30 08:14:47;;;;;;;18.27;16.23;;;30.30;35.20;;;;;;4951579;29;20094;-49
2021/01/30 08:17:34;;;;;;;17.40;15.00;;;30.00;35.80;;;;;;4951937;29;20035;-49
2021/01/30 08:20:11;;;;;;;15.73;13.52;;;29.00;36.20;;;;;;4951619;29;20395;-50
2021/01/30 08:23:19;;;;;;;14.60;12.02;;;30.10;36.10;;;;;;4951677;29;20043;-49
2021/01/30 08:25:52;;;;;;;12.35;10.85;;;30.30;36.10;;;;;;4951847;29;20043;-49
2021/01/30 08:28:31;;;;;;;11.90;10.70;;;30.40;34.90;;;;;;5000056;28;20113;-49
2021/01/30 08:30:57;;;;;;;13.05;11.75;;;30.20;35.70;;;;;;5012432;28;20053;-49
2021/01/30 08:33:23;;;;;;;15.20;13.30;;;30.60;35.30;;;;;;5012247;28;20033;-49
2021/01/30 08:35:52;;;;;;;20.88;17.25;;;30.90;34.90;;;;;;4970725;28;20067;-50
2021/01/30 08:38:18;;;;;;;13.38;11.55;;;31.00;35.40;;;;;;4970784;28;20043;-50
2021/01/30 08:40:54;;;;;;;14.27;12.55;;;30.60;34.70;;;;;;4938599;28;20134;-49
2021/01/30 08:43:28;;;;;;;15.77;13.32;;;31.00;34.40;;;;;;4970876;28;20050;-49
2021/01/30 08:46:14;;;;;;;14.13;12.63;;;;;;;;;;4938532;28;20042;-46
2021/01/30 08:48:40;;;;;;;11.73;10.52;;;30.80;34.10;;;;;;4970721;28;20398;-49
2021/01/30 08:51:18;;;;;;;11.98;10.82;;;30.70;34.80;;;;;;4970792;28;20117;-49
2021/01/30 08:53:43;;;;;;;13.02;11.73;;;30.80;34.70;;;;;;4956052;28;20046;-50
2021/01/30 08:56:09;;;;;;;15.60;14.20;;;30.60;35.00;;;;;;4981836;28;20430;-50
2021/01/30 08:58:35;;;;;;;12.57;11.30;;;30.70;34.70;;;;;;4993665;28;20034;-48
2021/01/30 09:01:08;;;;;;;11.35;10.25;;;30.90;34.90;;;;;;4993710;28;20486;-47
2021/01/30 09:03:44;;;;;;;11.45;10.25;;;30.90;34.50;;;;;;4993520;28;20070;-48
2021/01/30 09:06:30;;;;;;;13.40;12.13;;;30.80;34.60;;;;;;5002979;28;20557;-48
2021/01/30 09:09:05;;;;;;;11.65;10.57;;;;;;;;;;5035348;28;20037;-48
2021/01/30 09:11:52;;;;;;;11.00;9.88;;;31.00;33.90;;;;;;5035416;28;20037;-48
2021/01/30 09:14:18;;;;;;;16.45;14.85;;;31.00;34.60;;;;;;5035307;28;20028;-48
2021/01/30 09:17:06;;;;;;;14.10;12.90;;;30.70;34.60;;;;;;4984080;28;20045;-48
2021/01/30 09:20:19;;;;;;;11.50;10.40;;;30.20;34.70;;;;;;5000077;28;20049;-48
2021/01/30 09:22:53;;;;;;;14.77;13.38;;;30.70;34.40;;;;;;4922565;29;20384;-48
2021/01/30 09:25:34;;;;;;;14.55;13.13;;;30.40;34.70;;;;;;4954628;29;20202;-48
2021/01/30 09:28:12;;;;;;;16.80;15.25;;;30.60;34.30;;;;;;4954723;29;20039;-48
2021/01/30 09:31:00;;;;;;;11.55;10.52;;;30.80;34.10;;;;;;4954510;29;20523;-48
2021/01/30 09:33:32;;;;;;;12.00;11.10;;;30.90;33.60;;;;;;4954609;29;20035;-48
2021/01/30 09:36:09;;;;;;;8.60;8.00;;;31.30;33.00;;;;;;4954392;29;20039;-49
2021/01/30 09:38:39;;;;;;;18.88;15.40;;;30.90;32.40;;;;;;4954340;29;20043;-49
2021/01/30 09:41:23;;;;;;;16.13;14.60;;;31.10;33.00;;;;;;4954391;29;20048;-48
2021/01/30 09:44:22;;;;;;;12.80;11.77;;;31.40;33.00;;;;;;4954146;29;20074;-51
2021/01/30 09:46:54;;;;;;;10.90;9.98;;;31.00;33.30;;;;;;4937802;29;20043;-48
2021/01/30 09:49:27;;;;;;;12.75;11.60;;;31.40;32.90;;;;;;4952062;29;20748;-48
2021/01/30 09:51:55;;;;;;;15.13;13.73;;;31.00;32.90;;;;;;4954059;29;20039;-48
2021/01/30 09:54:24;;;;;;;21.10;16.85;;;31.20;34.10;;;;;;4954092;29;20031;-48
2021/01/30 09:56:53;;;;;;;16.38;14.77;;;31.00;32.80;;;;;;5003958;28;20045;-49
2021/01/30 09:59:24;;;;;;;11.95;10.98;;;31.00;33.40;;;;;;5034465;28;20075;-48
2021/01/30 10:01:50;;;;;;;11.85;11.07;;;30.90;33.40;;;;;;5034511;28;20029;-48
2021/01/30 10:04:18;;;;;;;27.00;19.33;;;30.90;32.60;;;;;;5033899;28;20517;-48
2021/01/30 10:06:45;;;;;;;11.48;10.68;;;31.10;33.70;;;;;;4972671;28;20443;-48
2021/01/30 10:09:16;;;;;;;21.98;12.93;;;31.10;32.10;;;;;;4972575;28;20051;-48
2021/01/30 10:11:45;;;;;;;14.25;13.35;;;30.90;33.20;;;;;;4975496;28;20054;-48
2021/01/30 10:14:15;;;;;;;13.50;12.60;;;30.40;33.00;;;;;;4992641;28;20070;-48
2021/01/30 10:16:44;;;;;;;20.50;18.67;;;30.60;33.00;;;;;;4976240;28;20050;-48
2021/01/30 10:19:23;;;;;;;26.27;24.63;;;;;;;;;;4972790;28;20478;-48
2021/01/30 10:21:50;;;;;;;25.35;24.10;;;30.40;33.00;;;;;;4972933;28;20043;-48
2021/01/30 10:24:29;;;;;;;17.23;16.33;;;30.60;33.20;;;;;;4940423;28;20070;-48
2021/01/30 10:27:11;;;;;;;17.70;16.73;;;30.40;33.20;;;;;;4972909;28;20051;-48
2021/01/30 10:29:37;;;;;;;19.17;17.85;;;30.30;33.60;;;;;;4972601;28;20039;-48
2021/01/30 10:32:08;;;;;;;26.02;24.05;;;30.00;34.00;;;;;;4972600;28;20046;-49
2021/01/30 10:34:47;;;;;;;43.03;39.58;;;30.20;34.70;;;;;;4940430;28;20046;-47
2021/01/30 10:37:22;;;;;;;47.55;45.17;;;30.00;34.10;;;;;;4967186;28;20050;-48
2021/01/30 10:39:53;;;;;;;30.98;29.08;;;29.40;33.80;;;;;;5011621;28;20069;-48
2021/01/30 10:42:25;;;;;;;23.75;22.50;;;28.80;34.80;;;;;;5011563;28;20041;-48
2021/01/30 10:45:16;;;;;;;25.95;24.17;;;29.40;34.90;;;;;;5011232;28;20137;-48
2021/01/30 10:47:43;;;;;;;34.13;32.20;;;29.40;34.60;;;;;;4972188;28;20117;-48
2021/01/30 10:50:43;;;;;;;37.47;34.90;;;29.50;34.80;;;;;;4943375;28;20398;-47
2021/01/30 10:53:18;;;;;;;14.25;13.45;;;29.80;34.40;;;;;;4987287;28;20038;-47
2021/01/30 10:55:44;;;;;;;51.05;48.55;;;29.60;34.20;;;;;;4975405;28;20581;-47
2021/01/30 10:58:25;;;;;;;42.38;40.38;;;30.50;34.50;;;;;;4974745;28;20122;-47
2021/01/30 11:01:01;;;;;;;28.45;26.77;;;29.10;34.30;;;;;;4979782;28;20467;-47
2021/01/30 11:03:48;;;;;;;17.88;16.90;;;29.10;35.90;;;;;;4987982;28;20579;-48
2021/01/30 11:06:22;;;;;;;19.33;18.33;;;29.10;34.40;;;;;;4952653;29;20134;-47
2021/01/30 11:08:49;;;;;;;10.57;9.95;;;29.30;34.30;;;;;;4952707;29;20102;-47
2021/01/30 11:11:26;;;;;;;11.60;10.85;;;28.90;35.10;;;;;;4952539;29;20039;-48
2021/01/30 11:13:53;;;;;;;17.55;16.55;;;28.70;34.80;;;;;;4952418;29;20140;-47
2021/01/30 11:16:33;;;;;;;25.00;23.15;;;28.00;35.10;;;;;;4952629;29;20031;-47
2021/01/30 11:19:15;;;;;;;11.00;10.40;;;27.40;36.40;;;;;;4919833;28;20119;-47
2021/01/30 11:21:41;;;;;;;17.70;16.65;;;27.90;35.60;;;;;;4952120;29;20059;-48
2021/01/30 11:24:25;;;;;;;23.83;14.82;;;;;;;;;;4962280;28;20081;-47
2021/01/30 11:26:50;;;;;;;11.95;11.25;;;28.10;35.00;;;;;;4990991;28;20035;-47
2021/01/30 11:29:37;;;;;;;11.18;9.98;;;28.00;35.40;;;;;;4990334;28;20034;-48
2021/01/30 11:32:09;;;;;;;17.23;13.98;;;27.80;35.40;;;;;;4974721;28;20037;-47
2021/01/30 11:34:35;;;;;;;9.60;9.00;;;27.50;37.50;;;;;;4952012;29;20073;-46
2021/01/30 11:37:01;;;;;;;8.95;8.35;;;27.60;36.60;;;;;;4952109;29;20043;-47
2021/01/30 11:39:30;;;;;;;27.38;23.50;;;27.70;37.00;;;;;;4920193;29;20036;-47
2021/01/30 11:41:56;;;;;;;17.30;15.90;;;28.10;36.30;;;;;;4952026;29;20109;-48
2021/01/30 11:44:23;;;;;;;15.57;13.77;;;28.10;36.10;;;;;;4969931;28;20070;-47
2021/01/30 11:46:49;;;;;;;22.55;21.13;;;27.60;37.00;;;;;;4971446;28;20030;-47
2021/01/30 11:49:16;;;;;;;14.77;13.80;;;25.70;38.10;;;;;;4954868;28;20178;-47
2021/01/30 11:51:42;;;;;;;8.65;8.05;;;25.50;39.70;;;;;;4971049;28;20062;-47
2021/01/30 11:54:09;;;;;;;7.88;7.28;;;25.80;39.60;;;;;;4971156;28;20081;-47
2021/01/30 11:56:35;;;;;;;8.10;7.50;;;26.30;40.90;;;;;;4971079;28;20065;-47
2021/01/30 11:59:00;;;;;;;9.73;8.82;;;25.50;39.40;;;;;;4971111;28;20402;-46
2021/01/30 12:01:26;;;;;;;9.48;8.68;;;25.60;41.00;;;;;;4971347;28;20141;-47
2021/01/30 12:03:52;;;;;;;9.27;8.32;;;25.40;41.00;;;;;;4970940;28;20042;-47
2021/01/30 12:06:18;;;;;;;38.42;34.47;;;25.80;41.70;;;;;;5005736;28;20053;-46
2021/01/30 12:08:44;;;;;;;21.98;20.08;;;25.60;42.30;;;;;;4977458;28;20449;-46
2021/01/30 12:11:13;;;;;;;5.68;5.28;;;25.80;41.10;;;;;;5012172;28;20041;-46
2021/01/30 12:13:39;;;;;;;9.68;8.68;;;25.40;41.40;;;;;;5012178;28;20049;-46
2021/01/30 12:16:06;;;;;;;10.55;6.72;;;25.30;42.20;;;;;;5012032;28;20037;-46
2021/01/30 12:18:33;;;;;;;23.95;19.02;;;25.00;42.40;;;;;;5012285;28;20081;-46
2021/01/30 12:20:59;;;;;;;12.43;10.52;;;24.40;43.80;;;;;;5012319;28;20038;-45
2021/01/30 12:23:25;;;;;;;5.20;4.22;;;24.20;43.60;;;;;;5012299;28;20045;-46
2021/01/30 12:25:51;;;;;;;4.90;3.45;;;23.50;43.00;;;;;;4977482;28;20429;-46
2021/01/30 12:28:25;;;;;;;3.70;3.25;;;23.00;45.50;;;;;;5012193;28;20125;-46
2021/01/30 12:30:51;;;;;;;5.28;4.57;;;22.60;45.00;;;;;;5012850;28;20030;-46
2021/01/30 12:33:18;;;;;;;3.38;2.85;;;;;;;;;;5016320;28;20088;-46
2021/01/30 12:35:44;;;;;;;3.65;2.83;;;22.70;73.40;;;;;;5016444;28;20037;-46
2021/01/30 12:38:11;;;;;;;4.55;3.25;;;22.70;46.70;;;;;;5016275;28;20084;-46
2021/01/30 12:40:42;;;;;;;5.65;4.63;;;22.60;46.20;;;;;;5016156;28;20124;-46
2021/01/30 12:43:09;;;;;;;4.60;3.20;;;22.90;46.90;;;;;;5016018;28;20076;-46
2021/01/30 12:45:35;;;;;;;4.28;2.70;;;22.80;47.00;;;;;;5014832;28;20080;-46
2021/01/30 12:48:02;;;;;;;4.72;3.47;;;22.70;47.00;;;;;;5015850;28;20030;-47
2021/01/30 12:50:29;;;;;;;6.40;3.92;;;23.00;47.10;;;;;;4965041;28;20053;-45
2021/01/30 12:52:55;;;;;;;5.43;4.82;;;22.40;47.10;;;;;;5016044;28;20494;-45
2021/01/30 12:55:22;;;;;;;8.20;5.95;;;21.80;48.00;;;;;;5016078;28;20037;-45
2021/01/30 12:57:48;;;;;;;5.55;4.15;;;21.50;49.80;;;;;;5015834;28;20030;-46
2021/01/30 13:00:19;;;;;;;4.47;3.17;;;21.50;50.40;;;;;;5015690;28;20087;-45
2021/01/30 13:02:45;;;;;;;6.75;5.70;;;21.40;49.00;;;;;;5015959;28;20109;-45
2021/01/30 13:05:12;;;;;;;7.70;5.13;;;21.70;51.30;;;;;;5015851;28;20466;-46
2021/01/30 13:07:38;;;;;;;10.63;5.40;;;21.40;50.60;;;;;;5015810;28;20045;-45
2021/01/30 13:10:10;;;;;;;9.68;5.97;;;21.40;51.30;;;;;;5015778;28;20099;-45
2021/01/30 13:12:37;;;;;;;8.60;5.57;;;21.90;51.60;;;;;;5003280;28;20045;-45